Detalii statie VESTAGRAR MARGHITA [00001D0E]

Toti senzorii

Date Temperatura solului [C]Precipitatii [mm]Voltaj baterie [mV]Leaf Wetness [Min]HC Air temperature [C]HC Relative humidity [%]Punctul de roua [C]
medieminmaxsumaultimatimpmedieminmaxmediemediemin
2019-04-19 19:00:00 0 7010 17.13 16.19 17.94 26.98 -2.2 -2.8
2019-04-19 20:00:00 0 6972 14.94 14.02 15.98 30.49 -2.5 -2.9
2019-04-19 21:00:00 0 6942 13.73 12.85 14.12 32.89 -2.4 -2.7
2019-04-19 22:00:00 0 6942 11.37 9.12 12.83 38.23 -2.4 -2.9
2019-04-19 23:00:00 0 6932 7.82 6.72 9.24 48.4 -2.4 -2.7
2019-04-20 00:00:00 0 6914 5.62 3.92 6.63 59.63 -1.7 -2.2
2019-04-20 01:00:00 0 6884 2.88 2.04 3.65 80.4 -0.2 -1.3
2019-04-20 02:00:00 0 6874 2.01 0.72 3.68 91.29 0.5 -0.4
2019-04-20 03:00:00 0 6854 -0.05 -1.01 0.67 100 0 -0.9
2019-04-20 04:00:00 0 6854 -0.27 -1.03 1 0 0 0
2019-04-20 05:00:00 0 6844 -0.6 -1.22 0.42 0 0 0
2019-04-20 06:00:00 0 6844 -1.86 -2.53 -1.03 0 0 0
2019-04-20 07:00:00 0 6904 0.03 -1.63 2.68 0 0 0
2019-04-20 08:00:00 0 7088 6.7 3.64 10.21 37.73 0
2019-04-20 09:00:00 0 7314 12.74 10.66 15.96 48.44 1.8 0.3
2019-04-20 10:00:00 0 7314 16.02 14.06 18.13 39.58 2 -0.3
2019-04-20 11:00:00 0 7314 18.42 18.04 18.77 29.18 -0.1 -1.5
2019-04-20 12:00:00 0 7314 19.01 17.91 20.21 25.22 -1.6 -3.7
2019-04-20 13:00:00 0 7304 18.9 18.29 20.16 24.77 -1.8 -3
2019-04-20 14:00:00 0 7304 20.37 18.5 21.46 24.67 -0.8 -3.2
2019-04-20 15:00:00 0 7304 20.15 19.12 21.31 25.06 -0.6 -2.8
2019-04-20 16:00:00 0 7304 19.6 19.01 20.42 23.5 -2.1 -3.9
2019-04-20 17:00:00 0 7118 19.11 18.44 19.76 24.44 -1.9 -3.9
2019-04-20 18:00:00 0 7108 18 17.48 18.53 25.06 -2.5 -3.8
2019-04-20 19:00:00 0 7000 16.93 14.18 17.88 30.41 -1.3 -3.5
2019-04-20 20:00:00 0 6962 9.47 7.58 12.71 61.9 2.3 0.9
2019-04-20 21:00:00 0 6952 7.27 6.7 7.76 63.08 0.5 0.3
2019-04-20 22:00:00 0 6942 5.6 5.2 6.23 72.61 0.9 0.7
2019-04-20 23:00:00 0 6922 6.27 6.03 6.6 69.27 0.9 0.7
2019-04-21 00:00:00 0 6922 6.78 6.3 7.21 67.05 0.9 0.2
2019-04-21 01:00:00 0 6904 6.92 6.76 7.05 66.2 0.9 0.2
2019-04-21 02:00:00 0 6904 7.17 6.83 7.36 64.12 0.6 0.3
2019-04-21 03:00:00 0 6884 7.49 7.4 7.7 63.21 0.8 0.3
2019-04-21 04:00:00 0 6874 7.49 7.26 7.82 65.11 1.2 0.9
2019-04-21 05:00:00 0 6874 7.07 6.74 7.63 64.52 0.7 0.3
2019-04-21 06:00:00 0 6874 6.73 6.19 7.36 63.75 0.2 0
2019-04-21 07:00:00 0 6922 8.02 7.59 8.8 60.29 0.6 0.3
2019-04-21 08:00:00 0 7128 12.24 9.1 14.44 48.48 1.4 0.9
2019-04-21 09:00:00 0 7314 15.67 14.85 16.57 41.07 2.2 1.4
2019-04-21 10:00:00 0 7314 17.44 16.49 18.27 38.7 3 2.1
2019-04-21 11:00:00 0 7314 18.65 17.71 19.79 37.83 3.7 2.8
2019-04-21 12:00:00 0 7304 19.05 18.4 19.63 39.77 4.8 3.7
2019-04-21 13:00:00 0 7304 20.18 19.56 21.09 37.85 5.1 3.6
2019-04-21 14:00:00 0 7294 21.4 20.85 22.06 35.55 5.2 3.6
2019-04-21 15:00:00 0 7284 20.75 19.79 21.5 33.44 3.9 3.1
2019-04-21 16:00:00 0 7294 21.19 20.89 21.78 31.52 3.4 2.3
2019-04-21 17:00:00 0 7118 20.85 19.94 21.46 29.1 1.8 0.7
2019-04-21 18:00:00 0 7108 19.3 18.78 20.04 30.62 1.2 0